createdAt,value
2023-04-25T00:01:44.577Z,2.62
2023-04-25T00:04:11.357Z,2.34
2023-04-25T00:06:38.017Z,2.53
2023-04-25T00:09:04.578Z,2.50
2023-04-25T00:11:31.142Z,2.51
2023-04-25T00:13:57.699Z,2.17
2023-04-25T00:16:24.303Z,2.43
2023-04-25T00:18:50.888Z,2.32
2023-04-25T00:21:17.437Z,2.26
2023-04-25T00:23:43.987Z,2.22
2023-04-25T00:26:10.519Z,2.36
2023-04-25T00:28:37.059Z,2.31
2023-04-25T00:31:03.665Z,2.18
2023-04-25T00:33:30.240Z,2.30
2023-04-25T00:35:56.787Z,2.02
2023-04-25T00:38:23.326Z,2.18
2023-04-25T00:40:49.882Z,2.38
2023-04-25T00:43:16.445Z,2.25
2023-04-25T00:45:43.029Z,2.29
2023-04-25T00:48:09.598Z,2.27
2023-04-25T00:50:36.154Z,2.26
2023-04-25T00:53:02.711Z,2.37
2023-04-25T00:55:29.259Z,2.09
2023-04-25T00:57:55.862Z,2.01
2023-04-25T01:00:22.397Z,2.23
2023-04-25T05:05:30.324Z,1.37
2023-04-25T05:07:56.849Z,1.42
2023-04-25T05:10:23.383Z,1.51
2023-04-25T05:12:49.948Z,1.56
2023-04-25T05:15:16.499Z,1.58
2023-04-25T05:17:43.117Z,1.59
2023-04-25T05:20:09.776Z,1.60
2023-04-25T05:22:36.339Z,1.42
2023-04-25T05:25:02.890Z,1.56
2023-04-25T05:27:29.436Z,1.47
2023-04-25T05:29:55.986Z,1.56
2023-04-25T05:32:22.622Z,1.53
2023-04-25T05:34:49.453Z,1.45
2023-04-25T05:37:16.043Z,1.35
2023-04-25T05:39:42.585Z,1.41
2023-04-25T05:42:09.146Z,1.40
2023-04-25T05:44:35.677Z,1.41
2023-04-25T05:47:02.212Z,1.52
2023-04-25T05:49:28.762Z,1.39
2023-04-25T05:51:55.326Z,1.58
2023-04-25T05:54:21.886Z,1.60
2023-04-25T05:56:48.419Z,1.55
2023-04-25T05:59:14.986Z,1.50
2023-04-25T06:01:41.504Z,1.29
2023-04-25T06:04:08.284Z,1.35
2023-04-25T06:06:35.135Z,1.41
2023-04-25T06:09:01.725Z,1.50
2023-04-25T06:11:28.224Z,1.29
2023-04-25T06:13:54.755Z,1.53
2023-04-25T06:16:21.365Z,1.46
2023-04-25T06:18:47.976Z,1.41
2023-04-25T06:21:14.883Z,1.27
2023-04-25T06:23:41.440Z,1.42
2023-04-25T06:26:08.060Z,1.40
2023-04-25T06:28:34.623Z,1.41
2023-04-25T06:31:01.218Z,1.40
2023-04-25T06:33:27.763Z,1.45
2023-04-25T06:35:54.344Z,1.40
2023-04-25T06:38:20.907Z,1.36
2023-04-25T06:40:47.460Z,1.49
2023-04-25T06:43:13.997Z,1.48
2023-04-25T06:45:40.531Z,1.33
2023-04-25T06:48:07.095Z,1.36
2023-04-25T06:50:33.725Z,1.39
2023-04-25T06:53:00.271Z,1.39
2023-04-25T06:55:26.813Z,1.30
2023-04-25T06:57:53.379Z,1.34
2023-04-25T07:00:19.923Z,1.29
2023-04-25T07:02:46.588Z,1.41
2023-04-25T07:05:13.239Z,1.45
2023-04-25T07:07:39.787Z,1.45
2023-04-25T07:10:06.312Z,1.42
2023-04-25T07:12:32.858Z,1.34
2023-04-25T07:14:59.410Z,1.25
2023-04-25T07:17:25.966Z,1.33
2023-04-25T07:19:52.525Z,1.49
2023-04-25T07:22:19.062Z,1.46
2023-04-25T07:24:45.605Z,1.47
2023-04-25T07:27:12.159Z,1.60
2023-04-25T07:29:38.698Z,1.74
2023-04-25T07:32:05.332Z,1.55
2023-04-25T07:34:31.992Z,1.82
2023-04-25T07:36:58.561Z,1.56
2023-04-25T07:39:25.126Z,1.79
2023-04-25T07:41:54.532Z,1.58
2023-04-25T07:44:21.825Z,1.61
2023-04-25T07:46:48.384Z,1.83
2023-04-25T07:49:14.945Z,2.17
2023-04-25T07:51:41.499Z,2.58
2023-04-25T07:54:08.032Z,2.65
2023-04-25T07:56:49.277Z,2.87
2023-04-25T07:59:19.027Z,3.44
2023-04-25T08:01:45.561Z,3.52
2023-04-25T08:04:12.369Z,3.65
2023-04-25T08:06:39.184Z,3.86
2023-04-25T08:09:05.836Z,4.06
2023-04-25T08:11:32.389Z,4.19
2023-04-25T08:13:58.947Z,4.03
2023-04-25T08:16:25.547Z,3.96
2023-04-25T08:18:52.481Z,4.54
2023-04-25T08:21:19.267Z,5.54
2023-04-25T08:23:45.814Z,5.39
2023-04-25T08:26:12.375Z,6.51
2023-04-25T08:28:38.922Z,8.83
2023-04-25T08:31:05.479Z,9.75
2023-04-25T08:33:32.072Z,6.69
2023-04-25T08:35:58.664Z,6.59
2023-04-25T08:38:25.211Z,6.50
2023-04-25T08:40:51.760Z,6.46
2023-04-25T08:43:18.313Z,6.72
2023-04-25T08:45:44.899Z,7.05
2023-04-25T08:48:11.485Z,8.87
2023-04-25T08:50:38.022Z,7.88
2023-04-25T08:53:04.601Z,8.38
2023-04-25T08:55:31.166Z,8.78
2023-04-25T08:57:57.723Z,9.81
2023-04-25T09:00:24.272Z,10.10
2023-04-25T09:02:50.999Z,11.09
2023-04-25T09:05:18.431Z,10.00
2023-04-25T09:07:48.468Z,11.47
2023-04-25T09:10:16.498Z,15.85
2023-04-25T09:12:43.078Z,15.96
2023-04-25T09:15:09.671Z,15.11
2023-04-25T09:17:36.422Z,13.25
2023-04-25T09:20:03.323Z,14.97
2023-04-25T09:22:29.938Z,16.47
2023-04-25T09:24:56.501Z,18.51
2023-04-25T09:27:23.061Z,20.37
2023-04-25T09:29:49.643Z,21.92
2023-04-25T09:32:16.368Z,17.74
2023-04-25T09:34:43.204Z,18.82
2023-04-25T09:37:09.760Z,21.06
2023-04-25T09:39:36.331Z,19.58
2023-04-25T09:42:02.915Z,14.56
2023-04-25T09:44:29.461Z,13.35
2023-04-25T09:46:56.020Z,11.52
2023-04-25T09:49:22.591Z,12.60
2023-04-25T09:51:49.182Z,13.87
2023-04-25T09:54:15.744Z,15.11
2023-04-25T09:56:42.280Z,19.66
2023-04-25T09:59:08.938Z,23.13
2023-04-25T10:01:35.629Z,23.21
2023-04-25T10:04:02.814Z,23.52
2023-04-25T10:06:29.940Z,23.60
2023-04-25T10:08:56.514Z,23.49
2023-04-25T10:11:23.054Z,23.52
2023-04-25T10:13:49.859Z,24.19
2023-04-25T10:16:16.629Z,24.10
2023-04-25T10:18:43.265Z,25.28
2023-04-25T10:21:09.816Z,26.49
2023-04-25T10:23:36.373Z,27.97
2023-04-25T10:26:03.047Z,41.19
2023-04-25T10:28:29.598Z,41.50
2023-04-25T10:30:56.236Z,41.56
2023-04-25T10:33:22.802Z,41.31
2023-04-25T10:35:49.368Z,42.04
2023-04-25T10:38:15.919Z,41.14
2023-04-25T10:40:42.469Z,41.80
2023-04-25T10:43:09.039Z,41.46
2023-04-25T10:45:35.593Z,44.66
2023-04-25T10:48:02.248Z,58.83
2023-04-25T10:50:28.867Z,63.73
2023-04-25T10:52:55.560Z,57.46
2023-04-25T10:55:22.127Z,55.38
2023-04-25T10:57:48.699Z,53.09
2023-04-25T11:00:15.405Z,57.49
2023-04-25T11:02:42.282Z,52.20
2023-04-25T11:05:08.952Z,56.19
2023-04-25T11:07:35.494Z,56.89
2023-04-25T11:10:02.056Z,69.73
2023-04-25T11:12:28.656Z,71.96
2023-04-25T11:14:55.194Z,82.68
2023-04-25T11:17:21.803Z,84.67
2023-04-25T11:19:48.393Z,91.20
2023-04-25T11:22:14.948Z,105.56
2023-04-25T11:24:41.514Z,88.11
2023-04-25T11:27:08.074Z,75.30
2023-04-25T11:29:34.663Z,69.44
2023-04-25T11:32:01.271Z,64.66
2023-04-25T11:34:27.873Z,61.33
2023-04-25T11:36:54.506Z,64.63
2023-04-25T11:39:21.109Z,65.72
2023-04-25T11:41:47.685Z,65.67
2023-04-25T11:44:14.375Z,62.94
2023-04-25T11:46:40.955Z,62.02
2023-04-25T11:49:07.535Z,61.97
2023-04-25T11:51:34.103Z,59.30
2023-04-25T11:54:00.660Z,57.50
2023-04-25T11:56:27.204Z,56.53
2023-04-25T11:58:53.792Z,55.72
2023-04-25T12:01:20.335Z,56.87
2023-04-25T12:03:47.160Z,55.84
2023-04-25T12:06:14.527Z,55.40
2023-04-25T12:08:41.257Z,55.70
2023-04-25T12:11:07.826Z,54.43
2023-04-25T12:13:34.414Z,53.12
2023-04-25T12:16:00.988Z,53.12
2023-04-25T12:18:27.564Z,52.37
2023-04-25T12:20:54.098Z,51.60
2023-04-25T12:23:20.673Z,51.89
2023-04-25T12:25:47.232Z,49.64
2023-04-25T12:28:13.765Z,50.16
2023-04-25T12:30:42.300Z,49.17
2023-04-25T12:33:08.980Z,49.32
2023-04-25T12:35:35.552Z,48.30
2023-04-25T12:38:02.117Z,47.72
2023-04-25T12:40:28.673Z,46.54
2023-04-25T12:42:55.260Z,46.50
2023-04-25T12:45:22.160Z,45.46
2023-04-25T12:47:48.790Z,43.50
2023-04-25T12:50:15.384Z,44.72
2023-04-25T12:52:41.960Z,45.12
2023-04-25T12:55:08.519Z,43.06
2023-04-25T12:57:35.072Z,41.42
2023-04-25T13:00:01.648Z,40.76
2023-04-25T13:02:28.413Z,41.75
2023-04-25T13:04:55.160Z,41.69
2023-04-25T13:07:21.758Z,40.35
2023-04-25T13:09:48.315Z,40.50
2023-04-25T13:12:14.894Z,40.44
2023-04-25T13:14:41.436Z,39.66
2023-04-25T13:17:08.075Z,39.44
2023-04-25T13:19:34.683Z,37.50
2023-04-25T13:22:01.284Z,37.74
2023-04-25T13:24:27.885Z,37.03
2023-04-25T13:26:54.421Z,36.71
2023-04-25T13:29:20.947Z,36.13
2023-04-25T13:31:47.521Z,34.88
2023-04-25T13:34:14.154Z,34.51
2023-04-25T13:36:40.711Z,33.97
2023-04-25T13:39:07.283Z,33.58
2023-04-25T13:41:33.820Z,32.40
2023-04-25T13:44:00.394Z,31.45
2023-04-25T13:46:44.970Z,31.88
2023-04-25T13:49:13.698Z,32.97
2023-04-25T13:51:40.314Z,32.38
2023-04-25T13:54:06.880Z,33.42
2023-04-25T13:56:33.434Z,34.08
2023-04-25T13:59:00.049Z,34.03
2023-04-25T14:01:26.696Z,33.51
2023-04-25T14:03:53.589Z,33.90
2023-04-25T14:06:20.526Z,34.77
2023-04-25T14:08:47.080Z,34.38
2023-04-25T14:11:13.620Z,35.95
2023-04-25T14:13:40.187Z,36.37
2023-04-25T14:16:06.786Z,37.86
2023-04-25T14:18:33.358Z,35.79
2023-04-25T14:20:59.908Z,36.43
2023-04-25T14:23:26.471Z,36.34
2023-04-25T14:25:53.047Z,35.78
2023-04-25T14:28:19.618Z,35.68
2023-04-25T14:30:46.163Z,35.68
2023-04-25T14:33:12.753Z,36.21
2023-04-25T14:35:39.344Z,36.06
2023-04-25T14:38:05.895Z,35.57
2023-04-25T14:40:32.455Z,35.76
2023-04-25T14:42:58.992Z,37.13
2023-04-25T14:45:25.544Z,37.18
2023-04-25T14:47:52.270Z,36.57
2023-04-25T14:50:18.925Z,36.15
2023-04-25T14:52:45.540Z,37.21
2023-04-25T14:55:12.101Z,37.28
2023-04-25T14:57:38.645Z,37.93
2023-04-25T15:00:05.216Z,38.40
2023-04-25T15:02:31.837Z,38.31
2023-04-25T15:04:58.636Z,38.68
2023-04-25T15:07:25.439Z,38.12
2023-04-25T15:09:52.001Z,39.53
2023-04-25T15:12:18.560Z,39.34
2023-04-25T15:14:45.104Z,38.73
2023-04-25T15:17:11.675Z,38.83
2023-04-25T15:19:38.224Z,38.83
2023-04-25T15:22:04.806Z,38.28
2023-04-25T15:24:31.381Z,39.47
2023-04-25T15:26:57.942Z,39.37
2023-04-25T15:29:24.502Z,38.87
2023-04-25T15:31:51.097Z,38.82
2023-04-25T15:34:17.686Z,38.62
2023-04-25T15:36:44.252Z,38.22
2023-04-25T15:39:10.872Z,38.52
2023-04-25T15:41:37.476Z,38.91
2023-04-25T15:44:04.043Z,39.71
2023-04-25T15:46:30.644Z,38.50
2023-04-25T15:48:57.235Z,39.32
2023-04-25T15:51:23.817Z,40.02
2023-04-25T15:53:50.709Z,39.95
2023-04-25T15:56:17.536Z,39.64
2023-04-25T15:58:44.117Z,40.06
2023-04-25T16:01:10.702Z,39.88
2023-04-25T16:03:37.372Z,38.22
2023-04-25T16:06:03.975Z,39.52
2023-04-25T16:08:30.519Z,40.36
2023-04-25T16:10:57.063Z,39.68
2023-04-25T16:13:23.741Z,40.14
2023-04-25T16:15:50.472Z,39.73
2023-04-25T16:18:17.136Z,39.44
2023-04-25T16:20:43.723Z,38.66
2023-04-25T16:23:10.287Z,38.51
2023-04-25T16:25:36.843Z,38.96
2023-04-25T16:28:03.383Z,39.14
2023-04-25T16:30:29.991Z,37.97
2023-04-25T16:32:56.605Z,39.06
2023-04-25T16:35:23.212Z,38.85
2023-04-25T16:37:49.827Z,38.62
2023-04-25T16:40:16.365Z,37.55
2023-04-25T16:42:42.943Z,35.88
2023-04-25T16:45:09.531Z,34.92
2023-04-25T16:47:36.087Z,35.60
2023-04-25T16:50:02.683Z,35.16
2023-04-25T16:52:29.268Z,34.94
2023-04-25T16:54:55.833Z,35.40
2023-04-25T16:57:22.415Z,34.93
2023-04-25T16:59:48.998Z,34.99
2023-04-25T17:02:15.710Z,36.24
2023-04-25T17:04:42.360Z,35.40
2023-04-25T17:07:08.920Z,35.26
2023-04-25T17:09:35.520Z,35.23
2023-04-25T17:12:02.101Z,34.46
2023-04-25T17:14:28.651Z,34.89
2023-04-25T17:16:55.218Z,35.19
2023-04-25T17:19:21.843Z,35.27
2023-04-25T17:21:48.403Z,35.71
2023-04-25T17:24:14.995Z,35.70
2023-04-25T17:26:41.608Z,35.12
2023-04-25T17:29:08.204Z,35.21
2023-04-25T17:31:34.869Z,35.30
2023-04-25T17:34:01.576Z,35.52
2023-04-25T17:36:28.144Z,35.71
2023-04-25T17:38:54.707Z,35.42
2023-04-25T17:41:21.267Z,36.99
2023-04-25T17:43:47.820Z,37.93
2023-04-25T17:46:14.415Z,39.03
2023-04-25T17:48:41.010Z,41.94
2023-04-25T17:51:07.581Z,41.80
2023-04-25T17:53:34.144Z,43.75
2023-04-25T17:56:00.683Z,39.76
2023-04-25T17:58:27.243Z,45.42
2023-04-25T18:00:53.781Z,52.17
2023-04-25T18:03:20.405Z,55.31
2023-04-25T18:05:47.001Z,55.55
2023-04-25T18:08:13.558Z,58.18
2023-04-25T18:10:40.152Z,55.79
2023-04-25T18:13:06.696Z,51.34
2023-04-25T18:15:33.314Z,47.09
2023-04-25T18:17:59.962Z,44.91
2023-04-25T18:20:26.520Z,44.42
2023-04-25T18:22:53.069Z,47.37
2023-04-25T18:25:19.638Z,50.34
2023-04-25T18:27:46.203Z,52.88
2023-04-25T18:30:12.727Z,52.54
2023-04-25T18:32:39.372Z,54.30
2023-04-25T18:35:05.973Z,54.34
2023-04-25T18:37:32.554Z,56.04
2023-04-25T18:39:59.134Z,55.61
2023-04-25T18:42:25.693Z,56.32
2023-04-25T18:44:52.240Z,55.92
2023-04-25T18:47:18.784Z,57.34
2023-04-25T18:49:45.365Z,57.14
2023-04-25T18:52:12.026Z,57.56
2023-04-25T18:54:38.608Z,57.55
2023-04-25T18:57:05.161Z,56.76
2023-04-25T18:59:31.741Z,58.07
2023-04-25T19:01:58.355Z,58.41
2023-04-25T19:04:25.055Z,57.69
2023-04-25T19:06:51.627Z,57.52
2023-04-25T19:09:18.213Z,57.90
2023-04-25T19:11:44.810Z,57.85
2023-04-25T19:14:11.400Z,57.45
2023-04-25T19:16:37.996Z,56.45
2023-04-25T19:19:04.577Z,57.26
2023-04-25T19:21:31.143Z,55.55
2023-04-25T19:23:57.687Z,56.49
2023-04-25T19:26:24.244Z,55.39
2023-04-25T19:28:50.781Z,56.05
2023-04-25T19:31:17.392Z,55.05
2023-04-25T19:33:43.965Z,55.39
2023-04-25T19:36:10.517Z,53.62
2023-04-25T19:38:37.088Z,54.18
2023-04-25T19:41:03.649Z,54.13
2023-04-25T19:43:30.213Z,53.92
2023-04-25T19:45:56.801Z,52.91
2023-04-25T19:48:23.359Z,52.03
2023-04-25T19:50:49.908Z,51.34
2023-04-25T19:53:16.448Z,52.23
2023-04-25T19:55:43.010Z,51.14
2023-04-25T19:58:09.616Z,51.37
2023-04-25T20:00:36.170Z,50.61
2023-04-25T20:03:02.910Z,49.61
2023-04-25T20:05:29.558Z,50.08
2023-04-25T20:07:56.112Z,49.16
2023-04-25T20:10:22.667Z,48.63
2023-04-25T20:12:49.249Z,47.81
2023-04-25T20:15:15.833Z,47.92
2023-04-25T20:17:42.530Z,47.39
2023-04-25T20:20:09.190Z,47.23
2023-04-25T20:22:35.785Z,46.95
2023-04-25T20:25:02.338Z,46.71
2023-04-25T20:27:28.871Z,46.63
2023-04-25T20:29:55.425Z,46.41
2023-04-25T20:32:22.004Z,45.90
2023-04-25T20:34:48.571Z,46.58
2023-04-25T20:37:16.576Z,46.10
2023-04-25T20:39:43.262Z,45.21
2023-04-25T20:42:09.838Z,45.19
2023-04-25T20:44:36.388Z,44.78
2023-04-25T20:47:02.946Z,44.02
2023-04-25T20:49:29.484Z,43.58
2023-04-25T20:51:56.064Z,43.33
2023-04-25T20:54:22.622Z,43.46
2023-04-25T20:56:49.264Z,41.77
2023-04-25T20:59:15.825Z,41.73
2023-04-25T21:01:42.425Z,41.63
2023-04-25T21:04:09.196Z,42.30
2023-04-25T21:06:35.969Z,41.59
2023-04-25T21:09:02.507Z,40.54
2023-04-25T21:11:29.124Z,39.82
2023-04-25T21:13:55.743Z,39.31
2023-04-25T21:16:22.353Z,38.95
2023-04-25T21:18:49.122Z,38.87
2023-04-25T21:21:15.831Z,38.18
2023-04-25T21:23:42.381Z,37.10
2023-04-25T21:26:08.937Z,37.42
2023-04-25T21:28:35.532Z,36.13
2023-04-25T21:31:02.162Z,35.22
2023-04-25T21:33:28.836Z,35.63
2023-04-25T21:35:55.393Z,35.33
2023-04-25T21:38:21.965Z,35.18
2023-04-25T21:40:48.547Z,33.84
2023-04-25T21:43:15.108Z,34.66
2023-04-25T21:46:05.755Z,34.62
2023-04-25T21:48:28.208Z,34.20
2023-04-25T21:50:54.767Z,34.07
2023-04-25T21:53:21.322Z,34.25
2023-04-25T21:55:47.872Z,33.89
2023-04-25T21:58:14.444Z,33.02
2023-04-25T22:00:40.995Z,33.18
2023-04-25T22:03:07.797Z,31.83
2023-04-25T22:05:34.541Z,33.33
2023-04-25T22:08:01.111Z,32.99
2023-04-25T22:10:27.658Z,32.08
2023-04-25T22:12:54.196Z,32.10
2023-04-25T22:15:20.807Z,31.26
2023-04-25T22:17:47.460Z,31.61
2023-04-25T22:20:14.119Z,31.46
2023-04-25T22:22:40.745Z,31.48
2023-04-25T22:25:07.348Z,30.26
2023-04-25T22:27:33.905Z,30.36
2023-04-25T22:30:00.440Z,30.32
2023-04-25T22:32:27.050Z,30.04
2023-04-25T22:34:53.615Z,30.37
2023-04-25T22:37:20.149Z,30.14
2023-04-25T22:39:46.698Z,29.86
2023-04-25T22:42:13.261Z,28.78
2023-04-25T22:44:39.833Z,28.53
2023-04-25T22:47:06.393Z,28.30
2023-04-25T22:49:32.959Z,28.55
2023-04-25T22:51:59.525Z,27.51
2023-04-25T22:54:26.064Z,27.63
2023-04-25T22:56:52.608Z,28.14
2023-04-25T22:59:19.161Z,28.30
2023-04-25T23:01:45.842Z,27.05
2023-04-25T23:04:12.671Z,26.65
2023-04-25T23:06:39.444Z,26.00
2023-04-25T23:09:06.005Z,25.51
2023-04-25T23:11:32.569Z,25.95
2023-04-25T23:13:59.126Z,25.52
2023-04-25T23:16:25.709Z,25.53
2023-04-25T23:18:52.388Z,25.07
2023-04-25T23:21:19.093Z,24.96
2023-04-25T23:23:45.661Z,25.04
2023-04-25T23:26:12.214Z,24.59
2023-04-25T23:28:41.252Z,24.82
2023-04-25T23:31:08.391Z,24.31
2023-04-25T23:33:35.000Z,23.29
2023-04-25T23:36:01.590Z,23.17
2023-04-25T23:38:28.159Z,23.33
2023-04-25T23:40:54.728Z,22.58
2023-04-25T23:43:21.275Z,22.93
2023-04-25T23:45:47.882Z,22.61
2023-04-25T23:48:14.432Z,22.35
2023-04-25T23:50:41.000Z,21.90
2023-04-25T23:53:07.544Z,22.14
2023-04-25T23:55:34.111Z,21.79
2023-04-25T23:58:00.663Z,22.02
